Time;durP1;ratioP1;P1;durP2;ratioP2;P2;SDS_P1;SDS_P2;PMS_P1;PMS_P2;Temp;Humidity;BMP_temperature;BMP_pressure;BME280_temperature;BME280_humidity;BME280_pressure;Samples;Min_cycle;Max_cycle;Signal;HPM_P1;HPM_P2
2023/12/28 00:01:51;;;;;;;15.53;10.77;;;;;;;-144.30;71.15;86340.84;5112019;28;20252;-58
2023/12/28 00:04:18;;;;;;;16.37;10.13;;;;;;;-144.30;71.32;86322.94;5112298;28;20249;-59
2023/12/28 00:06:45;;;;;;;16.77;11.00;;;;;;;-144.30;72.18;86334.88;5112618;28;20355;-60
2023/12/28 00:09:12;;;;;;;14.97;10.10;;;;;;;-144.30;72.45;86350.78;5112803;28;20199;-60
2023/12/28 00:11:39;;;;;;;18.00;10.87;;;;;;;-144.30;71.88;86316.97;5111862;28;20202;-54
2023/12/28 00:14:07;;;;;;;21.57;10.67;;;;;;;-144.30;72.05;86376.63;5111833;28;20670;-54
2023/12/28 00:16:37;;;;;;;17.40;11.30;;;;;;;-144.30;72.89;86307.03;5111403;28;20250;-55
2023/12/28 00:19:04;;;;;;;19.87;10.97;;;;;;;-144.30;72.20;86299.06;5111467;28;20195;-54
2023/12/28 00:21:31;;;;;;;16.43;10.50;;;;;;;-144.30;71.95;86342.81;5111569;28;20278;-54
2023/12/28 00:23:58;;;;;;;16.20;9.83;;;;;;;-144.30;71.84;86334.88;5111837;28;20271;-54
2023/12/28 00:26:25;;;;;;;18.00;10.00;;;;;;;-144.30;72.02;86326.91;5111618;28;20277;-55
2023/12/28 00:28:52;;;;;;;17.63;9.93;;;;;;;-144.30;72.49;86352.75;5111058;28;20251;-59
2023/12/28 00:31:20;;;;;;;14.37;10.03;;;;;;;-144.30;72.19;86380.59;5111555;28;20229;-53
2023/12/28 00:33:47;;;;;;;14.80;10.07;;;;;;;-144.30;73.51;86370.66;5111345;28;20281;-59
2023/12/28 00:36:14;;;;;;;12.50;9.90;;;;;;;-144.30;73.72;86352.75;5112160;28;20316;-59
2023/12/28 00:38:41;;;;;;;15.93;9.60;;;;;;;-144.30;74.85;86376.63;5111502;28;20210;-59
2023/12/28 00:41:07;;;;;;;13.80;10.30;;;;;;;-144.30;74.45;86362.72;5111281;28;20289;-60
2023/12/28 00:43:35;;;;;;;19.77;9.27;;;;;;;-144.30;74.61;86344.81;5111837;28;20281;-59
2023/12/28 00:46:03;;;;;;;14.40;9.63;;;;;;;-144.30;74.55;86372.66;5111525;28;20286;-60
2023/12/28 00:48:31;;;;;;;16.20;9.63;;;;;;;-144.30;74.56;86354.75;5111913;28;20644;-59
2023/12/28 00:50:58;;;;;;;14.13;8.60;;;;;;;-144.30;73.70;86364.69;5111411;28;20652;-53
2023/12/28 00:53:26;;;;;;;13.27;8.03;;;;;;;-144.30;73.96;86338.84;5110881;28;20234;-54
2023/12/28 00:55:53;;;;;;;10.17;7.83;;;;;;;-144.30;73.86;86332.88;5110685;28;20209;-54
2023/12/28 00:58:20;;;;;;;16.73;8.27;;;;;;;-144.30;74.10;86404.47;5111220;28;20226;-60
2023/12/28 01:00:47;;;;;;;12.33;7.60;;;;;;;-144.30;74.60;86289.13;5110724;28;20203;-54
2023/12/28 01:03:14;;;;;;;16.83;8.10;;;;;;;-144.30;74.33;86338.84;5110848;28;20202;-54
2023/12/28 01:05:42;;;;;;;16.63;7.37;;;;;;;-144.30;74.36;86346.81;5110786;28;20201;-54
2023/12/28 01:08:09;;;;;;;14.07;7.23;;;;;;;-144.30;73.59;86330.88;5110544;28;20217;-54
2023/12/28 01:10:36;;;;;;;10.83;7.60;;;;;;;-144.30;72.59;86354.75;5110494;28;20201;-54
2023/12/28 01:13:03;;;;;;;8.00;6.50;;;;;;;-144.30;71.24;86364.69;5110565;28;20267;-54
2023/12/28 01:15:30;;;;;;;8.33;6.13;;;;;;;-144.30;70.74;86354.75;5110592;28;20198;-54
2023/12/28 01:17:57;;;;;;;8.90;6.33;;;;;;;-144.30;70.43;86366.69;5110428;28;20598;-54
2023/12/28 01:20:24;;;;;;;8.70;6.33;;;;;;;-144.30;69.83;86736.56;5110528;28;20197;-60
2023/12/28 01:22:53;;;;;;;8.20;5.87;;;;;;;-144.30;70.02;86384.59;5110703;28;20212;-59
2023/12/28 01:25:19;;;;;;;10.47;7.03;;;;;;;-144.30;70.74;86348.78;5110487;28;20198;-55
2023/12/28 01:27:46;;;;;;;9.83;6.70;;;;;;;-144.30;70.61;86360.72;5109789;28;20197;-54
2023/12/28 01:30:13;;;;;;;10.47;6.03;;;;;;;-144.30;69.86;86340.84;5110763;28;20589;-54
2023/12/28 01:32:40;;;;;;;7.33;5.70;;;;;;;-144.30;69.59;86340.84;5110213;28;20720;-54
2023/12/28 01:35:08;;;;;;;8.43;6.10;;;;;;;-144.30;69.78;86358.72;5110722;28;20221;-60
2023/12/28 01:37:34;;;;;;;8.17;5.83;;;;;;;-144.30;69.41;86362.72;5110730;28;20214;-59
2023/12/28 01:40:03;;;;;;;8.30;6.07;;;;;;;-144.30;69.31;86378.63;5110909;28;20225;-59
2023/12/28 01:42:31;;;;;;;10.50;6.30;;;;;;;-144.30;69.33;86390.53;5110668;28;20269;-60
2023/12/28 01:44:58;;;;;;;16.17;7.03;;;;;;;-144.30;70.20;86370.66;5111049;28;20330;-59
2023/12/28 01:47:26;;;;;;;14.57;6.97;;;;;;;-144.30;70.46;86261.28;5110819;28;20310;-59
2023/12/28 01:49:54;;;;;;;16.70;6.90;;;;;;;-144.30;70.64;86362.72;5110310;28;20216;-60
2023/12/28 01:52:21;;;;;;;12.33;6.77;;;;;;;-144.30;70.53;86370.66;5110069;28;20194;-60
2023/12/28 01:54:49;;;;;;;12.53;7.03;;;;;;;-144.30;71.24;86342.81;5110737;28;20190;-60
2023/12/28 01:57:18;;;;;;;15.63;7.03;;;;;;;-144.30;71.62;86398.50;5110858;28;20704;-59
2023/12/28 01:59:45;;;;;;;11.37;6.77;;;;;;;-144.30;71.57;86390.53;5110691;28;20595;-59
2023/12/28 02:02:12;;;;;;;12.70;6.30;;;;;;;-144.30;71.46;86384.59;5110321;28;20289;-59
2023/12/28 02:04:39;;;;;;;13.13;6.97;;;;;;;-144.30;72.06;86366.69;5110581;28;20205;-59
2023/12/28 02:07:07;;;;;;;10.77;7.03;;;;;;;-144.30;71.98;86255.34;5110860;28;20194;-60
2023/12/28 02:09:34;;;;;;;11.87;6.80;;;;;;;-144.30;72.72;86370.66;5110816;28;20194;-60
2023/12/28 02:12:02;;;;;;;10.37;7.10;;;;;;;-144.30;73.12;86402.47;5110929;28;20194;-58
2023/12/28 02:14:30;;;;;;;16.10;6.73;;;;;;;-144.30;74.12;86414.41;5110548;28;20198;-60
2023/12/28 02:17:04;;;;;;;11.57;7.03;;;;;;;-144.30;74.56;86414.41;5110097;28;20230;-54
2023/12/28 02:19:41;;;;;;;10.83;6.50;;;;;;;-144.30;74.96;86386.56;5109762;28;20595;-54
2023/12/28 02:22:10;;;;;;;16.10;6.80;;;;;;;-144.30;75.12;86420.38;5109597;28;20266;-54
2023/12/28 02:24:57;;;;;;;8.80;6.73;;;;;;;-144.30;75.19;86384.59;5110416;28;20590;-59
2023/12/28 02:27:24;;;;;;;12.53;7.33;;;;;;;-144.30;74.99;86388.56;5110326;28;20210;-60
2023/12/28 02:29:51;;;;;;;12.53;6.40;;;;;;;-144.30;75.36;86637.13;5110268;28;20198;-59
2023/12/28 02:32:20;;;;;;;8.10;6.40;;;;;;;-144.30;75.43;86396.50;5110441;28;20199;-59
2023/12/28 02:34:51;;;;;;;9.83;7.17;;;;;;;-144.30;76.39;86410.44;5110167;28;20198;-59
2023/12/28 02:37:19;;;;;;;16.37;8.13;;;;;;;-144.30;76.34;86432.31;5110360;28;20218;-60
2023/12/28 02:39:50;;;;;;;13.93;7.07;;;;;;;-144.30;76.00;86426.34;5110207;28;20198;-59
2023/12/28 02:42:19;;;;;;;9.93;7.03;;;;;;;-144.30;75.33;86382.59;5110378;28;20237;-59
2023/12/28 02:44:46;;;;;;;10.00;6.73;;;;;;;-144.30;75.55;86418.38;5110119;28;20198;-59
2023/12/28 02:47:13;;;;;;;8.60;6.50;;;;;;;-144.30;76.30;86448.22;5110038;28;20437;-60
2023/12/28 02:49:40;;;;;;;10.10;6.97;;;;;;;-144.30;77.41;86438.28;5110227;28;20570;-54
2023/12/28 02:52:07;;;;;;;11.30;7.53;;;;;;;-144.30;77.83;86426.34;5110292;28;20689;-59
2023/12/28 02:54:34;;;;;;;12.03;7.83;;;;;;;-144.30;78.04;86434.28;5110570;28;20203;-54
2023/12/28 02:57:01;;;;;;;14.30;7.47;;;;;;;-144.30;77.84;86450.19;5109298;28;20238;-53
2023/12/28 02:59:29;;;;;;;14.10;7.83;;;;;;;-144.30;77.72;86422.38;5109427;28;20217;-60
2023/12/28 03:01:56;;;;;;;10.87;7.07;;;;;;;-144.30;78.01;86450.19;5109502;28;20643;-60
2023/12/28 03:04:23;;;;;;;12.20;7.67;;;;;;;-144.30;79.29;86468.09;5113551;28;20191;-54
2023/12/28 03:06:50;;;;;;;11.63;7.40;;;;;;;-144.30;79.52;86452.19;5113485;28;20197;-59
2023/12/28 03:09:17;;;;;;;16.47;8.57;;;;;;;-144.30;77.96;86430.31;5113656;28;20212;-60
2023/12/28 03:11:44;;;;;;;20.13;9.07;;;;;;;-144.30;78.08;86420.38;5113489;28;20195;-59
2023/12/28 03:14:10;;;;;;;12.40;8.00;;;;;;;-144.30;77.99;86460.16;5113498;28;20202;-54
2023/12/28 03:16:39;;;;;;;16.00;8.07;;;;;;;-144.30;78.47;86418.38;5113757;28;20195;-60
2023/12/28 03:19:06;;;;;;;13.50;8.10;;;;;;;-144.30;77.63;86466.09;5113168;28;20223;-53
2023/12/28 03:21:32;;;;;;;13.90;8.40;;;;;;;-144.30;78.29;86428.31;5113285;28;20281;-59
2023/12/28 03:23:59;;;;;;;14.20;8.00;;;;;;;-144.30;78.25;86478.03;5113212;28;20685;-54
2023/12/28 03:26:26;;;;;;;9.97;7.57;;;;;;;-144.30;78.53;86464.13;5112772;28;20745;-54
2023/12/28 03:28:53;;;;;;;13.57;7.83;;;;;;;-144.30;79.13;86438.28;5112842;28;20216;-59
2023/12/28 03:31:20;;;;;;;13.80;8.03;;;;;;;-144.30;79.21;86460.16;5113248;28;20274;-59
2023/12/28 03:33:48;;;;;;;19.40;11.23;;;;;;;-144.30;79.05;86468.09;5113119;28;20287;-59
2023/12/28 03:36:19;;;;;;;17.40;10.23;;;;;;;-144.30;79.17;86694.81;5112585;28;20201;-53
2023/12/28 03:38:46;;;;;;;12.07;8.30;;;;;;;-144.30;78.78;86446.22;5112240;28;20214;-55
2023/12/28 03:41:18;;;;;;;10.73;8.07;;;;;;;-144.30;78.99;86416.41;5112767;28;20249;-60
2023/12/28 03:43:45;;;;;;;13.60;9.20;;;;;;;-144.30;79.44;86454.19;5112954;28;20206;-54
2023/12/28 03:46:12;;;;;;;21.10;12.37;;;;;;;-144.30;80.16;86452.19;5112844;28;20206;-60
2023/12/28 03:48:39;;;;;;;19.07;13.03;;;;;;;-144.30;80.48;86426.34;5112607;28;20196;-54
2023/12/28 03:51:07;;;;;;;23.03;13.63;;;;;;;-144.30;80.61;86418.38;5112256;28;20206;-54
2023/12/28 03:53:35;;;;;;;21.83;12.70;;;;;;;-144.30;81.91;86442.25;5112226;28;20199;-54
2023/12/28 03:56:02;;;;;;;21.13;11.77;;;;;;;-144.30;81.98;86476.06;5112362;28;20222;-54
2023/12/28 03:58:29;;;;;;;17.80;11.10;;;;;;;-144.30;81.45;86458.16;5112181;28;20222;-61
2023/12/28 04:00:56;;;;;;;12.03;9.37;;;;;;;-144.30;81.87;86454.19;5112519;28;20199;-60
2023/12/28 04:03:23;;;;;;;19.07;9.37;;;;;;;-144.30;82.75;86497.94;5112294;28;20195;-58
2023/12/28 04:05:50;;;;;;;10.33;7.50;;;;;;;-144.30;81.65;86495.94;5112892;28;20191;-60
2023/12/28 04:08:18;;;;;;;10.30;7.37;;;;;;;-144.30;80.92;86460.16;5112693;28;20205;-54
2023/12/28 04:10:45;;;;;;;15.53;10.37;;;;;;;-144.30;80.06;86482.03;5111778;28;20194;-54
2023/12/28 04:13:12;;;;;;;38.50;21.20;;;;;;;-144.30;80.34;86474.06;5112817;28;20591;-60
2023/12/28 04:15:39;;;;;;;20.00;12.53;;;;;;;-144.30;80.47;86458.16;5111236;28;20728;-54
2023/12/28 04:18:05;;;;;;;29.40;14.30;;;;;;;-144.30;80.97;86497.94;5111966;28;20606;-58
2023/12/28 04:20:32;;;;;;;23.73;12.37;;;;;;;-144.30;80.54;86493.94;5112375;28;20195;-55
2023/12/28 04:22:59;;;;;;;36.13;15.47;;;;;;;-144.30;81.08;86458.16;5111872;28;20194;-55
2023/12/28 04:25:27;;;;;;;29.70;14.10;;;;;;;-144.30;82.17;86466.09;5112080;28;20572;-54
2023/12/28 04:27:54;;;;;;;30.00;12.53;;;;;;;-144.30;83.15;86493.94;5111418;28;20197;-54
2023/12/28 04:30:21;;;;;;;15.23;9.23;;;;;;;-144.30;82.39;86486.00;5111446;28;20199;-55
2023/12/28 04:32:48;;;;;;;16.40;8.80;;;;;;;-144.30;82.37;86499.91;5111414;28;20205;-54
2023/12/28 04:35:15;;;;;;;17.90;9.00;;;;;;;-144.30;82.56;86478.03;5111627;28;20684;-54
2023/12/28 04:37:42;;;;;;;15.00;8.50;;;;;;;-144.30;82.08;86446.22;5111137;28;20222;-54
2023/12/28 04:40:10;;;;;;;16.93;8.87;;;;;;;-144.30;81.57;86450.19;5111204;28;20192;-54
2023/12/28 04:42:38;;;;;;;15.83;9.63;;;;;;;-144.30;81.53;86474.06;5111170;28;20226;-59
2023/12/28 04:45:06;;;;;;;19.17;10.80;;;;;;;-144.30;82.29;86511.84;5111915;28;20201;-60
2023/12/28 04:47:33;;;;;;;14.30;9.87;;;;;;;-144.30;83.34;86464.13;5111278;28;20197;-55
2023/12/28 04:50:00;;;;;;;18.10;11.00;;;;;;;-144.30;82.84;86462.13;5110767;28;20224;-54
2023/12/28 04:52:27;;;;;;;19.93;11.20;;;;;;;-144.30;82.60;86462.13;5111254;28;20568;-54
2023/12/28 04:54:54;;;;;;;19.83;10.33;;;;;;;-144.30;82.56;86472.06;5110898;28;20197;-54
2023/12/28 04:57:24;;;;;;;14.37;9.67;;;;;;;-144.30;82.18;86493.94;5110960;28;20196;-54
2023/12/28 04:59:52;;;;;;;17.70;10.20;;;;;;;-144.30;82.69;86440.25;5110600;28;20190;-55
2023/12/28 05:02:19;;;;;;;17.70;10.00;;;;;;;-144.30;81.62;86501.91;5110934;28;20654;-55
2023/12/28 05:04:46;;;;;;;12.23;8.47;;;;;;;-144.30;80.19;86482.03;5110692;28;20195;-55
2023/12/28 05:07:13;;;;;;;19.20;11.07;;;;;;;-144.30;79.54;86474.06;5110961;27;20198;-59
2023/12/28 05:09:40;;;;;;;12.27;7.97;;;;;;;-144.30;79.41;86499.91;5110562;28;20294;-59
2023/12/28 05:12:07;;;;;;;14.80;7.67;;;;;;;-144.30;78.44;86462.13;5110714;28;20203;-60
2023/12/28 05:14:34;;;;;;;12.63;7.70;;;;;;;-144.30;77.96;86480.03;5109665;28;20201;-60
2023/12/28 05:17:02;;;;;;;13.43;7.40;;;;;;;-144.30;77.16;86482.03;5109116;28;20192;-60
2023/12/28 05:19:29;;;;;;;11.07;7.00;;;;;;;-144.30;76.93;86505.88;5109566;28;20217;-60
2023/12/28 05:21:56;;;;;;;11.10;6.77;;;;;;;-144.30;76.02;86424.34;5109409;28;20197;-60
2023/12/28 05:24:23;;;;;;;10.87;7.00;;;;;;;-144.30;75.99;86499.91;5109307;28;20201;-60
2023/12/28 05:26:50;;;;;;;11.13;6.03;;;;;;;-144.30;75.51;86474.06;5108758;28;20222;-60
2023/12/28 05:29:16;;;;;;;11.50;6.43;;;;;;;-144.30;74.99;86476.06;5109689;28;20199;-61
2023/12/28 05:31:43;;;;;;;10.37;6.77;;;;;;;-144.30;75.04;86501.91;5109086;28;20195;-61
2023/12/28 05:34:12;;;;;;;12.17;6.53;;;;;;;-144.30;74.72;86495.94;5109558;28;20195;-61
2023/12/28 05:36:40;;;;;;;11.20;6.27;;;;;;;-144.30;75.09;86493.94;5109161;28;20198;-60
2023/12/28 05:39:09;;;;;;;10.83;7.13;;;;;;;-144.30;75.67;86482.03;5109540;28;20215;-61
2023/12/28 05:41:36;;;;;;;13.07;7.90;;;;;;;-144.30;76.22;86466.09;5109180;28;20227;-61
2023/12/28 05:44:03;;;;;;;13.80;8.10;;;;;;;-144.30;77.36;86509.84;5108944;28;20198;-61
2023/12/28 05:46:29;;;;;;;13.93;7.73;;;;;;;-144.30;78.37;86493.94;5109071;28;20237;-61
2023/12/28 05:48:56;;;;;;;10.83;6.97;;;;;;;-144.30;78.19;86487.97;5108850;28;20200;-54
2023/12/28 05:51:24;;;;;;;13.87;7.10;;;;;;;-144.30;77.99;86489.97;5109002;28;20202;-55
2023/12/28 05:53:51;;;;;;;12.17;7.20;;;;;;;-144.30;78.07;86486.00;5108891;28;20205;-54
2023/12/28 05:56:18;;;;;;;14.60;7.00;;;;;;;-144.30;78.59;86505.88;5109150;28;20596;-55
2023/12/28 05:58:45;;;;;;;13.50;7.50;;;;;;;-144.30;78.66;86513.84;5109119;28;20222;-60
2023/12/28 06:01:12;;;;;;;12.77;7.47;;;;;;;-144.30;78.45;86430.31;5107474;28;20195;-61
2023/12/28 06:03:39;;;;;;;13.33;7.60;;;;;;;-144.30;77.94;86511.84;5104290;28;20209;-60
2023/12/28 06:06:06;;;;;;;10.93;7.00;;;;;;;-144.30;77.33;86472.06;5108869;28;20210;-54
2023/12/28 06:08:34;;;;;;;10.70;7.10;;;;;;;-144.30;77.36;86450.19;5108984;28;20198;-61
2023/12/28 06:11:01;;;;;;;17.00;8.07;;;;;;;-144.30;77.29;86478.03;5108613;28;20199;-58
2023/12/28 06:13:29;;;;;;;11.97;7.27;;;;;;;-144.30;77.17;86470.09;5112396;28;20218;-55
2023/12/28 06:15:55;;;;;;;14.23;7.63;;;;;;;-144.30;77.24;86486.00;5096398;28;20195;-55
2023/12/28 06:18:22;;;;;;;13.70;7.60;;;;;;;-144.30;77.54;86489.97;5108474;28;20218;-55
2023/12/28 06:20:49;;;;;;;11.70;7.97;;;;;;;-144.30;77.64;86503.91;5108935;28;20516;-63
2023/12/28 06:23:16;;;;;;;13.93;8.43;;;;;;;-144.30;77.66;86442.25;5109298;28;20612;-60
2023/12/28 06:25:45;;;;;;;18.03;9.23;;;;;;;-144.30;76.93;86446.22;5109406;28;20575;-61
2023/12/28 06:28:11;;;;;;;16.87;9.83;;;;;;;-144.30;76.96;86497.94;5108638;28;20199;-62
2023/12/28 06:30:39;;;;;;;14.47;9.27;;;;;;;-144.30;77.12;86422.38;5108017;28;20207;-60
2023/12/28 06:33:06;;;;;;;15.63;8.47;;;;;;;-144.30;76.97;86462.13;5108421;28;20287;-60
2023/12/28 06:35:35;;;;;;;13.27;8.17;;;;;;;-144.30;76.89;86470.09;5109214;28;20209;-62
2023/12/28 06:38:02;;;;;;;10.60;7.23;;;;;;;-144.30;76.21;86474.06;5110740;28;20670;-61
2023/12/28 06:40:29;;;;;;;15.40;8.53;;;;;;;-144.30;75.96;86501.91;5113065;28;20247;-55
2023/12/28 06:42:57;;;;;;;20.40;10.37;;;;;;;-144.30;75.95;86446.22;5112907;28;20747;-55
2023/12/28 06:45:27;;;;;;;22.77;10.40;;;;;;;-144.30;75.62;86438.28;5113481;28;20200;-54
2023/12/28 06:47:54;;;;;;;26.37;10.87;;;;;;;-144.30;75.31;86432.31;5113030;28;20293;-56
2023/12/28 06:50:21;;;;;;;17.63;10.43;;;;;;;-144.30;74.52;86470.09;5113040;28;20202;-54
2023/12/28 06:52:48;;;;;;;18.00;10.20;;;;;;;-144.30;74.43;86452.19;5112675;28;20682;-55
2023/12/28 06:55:17;;;;;;;17.77;9.33;;;;;;;-144.30;74.64;86454.19;5113255;28;20205;-55
2023/12/28 06:57:44;;;;;;;21.17;9.90;;;;;;;-144.30;75.13;86497.94;5113003;28;20674;-56
2023/12/28 07:00:14;;;;;;;16.90;9.50;;;;;;;-144.30;75.22;86448.22;5112796;28;20221;-60
2023/12/28 07:02:41;;;;;;;18.17;9.47;;;;;;;-144.30;75.13;86466.09;5111990;28;20255;-61
2023/12/28 07:05:08;;;;;;;15.70;9.43;;;;;;;-144.30;74.55;86398.50;5112859;28;20194;-61
2023/12/28 07:07:36;;;;;;;16.83;9.87;;;;;;;-144.30;74.82;86448.22;5112807;28;20286;-60
2023/12/28 07:10:04;;;;;;;17.20;10.47;;;;;;;-144.30;76.90;86354.75;5112736;28;20195;-58
2023/12/28 07:12:31;;;;;;;20.13;10.90;;;;;;;-144.30;78.13;86478.03;5107152;27;20833;-61
2023/12/28 07:14:58;;;;;;;16.43;10.70;;;;;;;-144.30;78.18;86442.25;5102918;28;20198;-61
2023/12/28 07:17:26;;;;;;;17.03;11.20;;;;;;;-144.30;78.11;86418.38;5112231;28;20627;-55
2023/12/28 07:19:53;;;;;;;16.40;10.73;;;;;;;-144.30;77.77;86426.34;5111904;28;20695;-60
2023/12/28 07:22:20;;;;;;;14.43;10.33;;;;;;;-144.30;77.48;86432.31;5112800;27;20226;-56
2023/12/28 07:24:47;;;;;;;16.27;10.70;;;;;;;-144.30;76.98;86400.50;5114221;27;20191;-55
2023/12/28 07:27:14;;;;;;;17.83;11.23;;;;;;;-144.30;76.90;86414.41;5111584;28;20202;-54
2023/12/28 07:29:41;;;;;;;19.83;10.90;;;;;;;-144.30;77.01;86414.41;5112308;28;20252;-61
2023/12/28 07:32:09;;;;;;;14.77;10.63;;;;;;;-144.30;76.85;86406.44;5112337;28;20693;-54
2023/12/28 07:34:37;;;;;;;16.20;11.20;;;;;;;-144.30;75.98;86406.44;5112192;28;20245;-61
2023/12/28 07:37:05;;;;;;;18.30;10.97;;;;;;;-144.30;76.94;86412.41;5111997;28;20195;-61
2023/12/28 07:39:32;;;;;;;23.37;11.20;;;;;;;-144.30;76.29;86396.50;5112411;28;20598;-61
2023/12/28 07:41:59;;;;;;;17.47;10.63;;;;;;;-144.30;75.56;86414.41;5111882;28;20248;-60
2023/12/28 07:44:26;;;;;;;19.23;11.17;;;;;;;-144.30;76.25;86420.38;5112556;28;20203;-61
2023/12/28 07:46:53;;;;;;;16.10;11.43;;;;;;;-144.30;76.25;86430.31;5111947;28;20302;-61
2023/12/28 07:49:20;;;;;;;17.17;10.37;;;;;;;-144.30;74.40;86378.63;5110042;28;20604;-61
2023/12/28 07:51:48;;;;;;;14.90;10.83;;;;;;;-144.30;74.72;86374.63;5111000;28;20206;-55
2023/12/28 07:54:15;;;;;;;20.03;11.43;;;;;;;-144.30;74.51;86398.50;5111732;28;20191;-55
2023/12/28 07:56:42;;;;;;;19.70;11.63;;;;;;;-144.30;74.28;86350.78;5111771;28;20202;-56
2023/12/28 07:59:09;;;;;;;18.03;11.27;;;;;;;-144.30;74.65;86392.53;5111670;28;20221;-54
2023/12/28 08:01:36;;;;;;;20.03;12.07;;;;;;;-144.30;74.57;86346.81;5111509;28;20202;-56
2023/12/28 08:04:03;;;;;;;20.37;12.57;;;;;;;-144.30;74.38;86416.41;5111407;28;20197;-55
2023/12/28 08:06:32;;;;;;;18.83;11.43;;;;;;;-144.30;74.35;86404.47;5111798;28;20203;-56
2023/12/28 08:09:00;;;;;;;23.30;12.03;;;;;;;-144.30;73.79;86334.88;5111654;28;20195;-61
2023/12/28 08:11:27;;;;;;;22.43;11.67;;;;;;;-144.30;73.74;86354.75;5111587;28;20206;-55
2023/12/28 08:13:54;;;;;;;17.33;11.23;;;;;;;-144.30;73.53;86326.91;5111333;28;20205;-55
2023/12/28 08:16:21;;;;;;;15.17;10.83;;;;;;;-144.30;73.12;86372.66;5111407;28;20203;-60
2023/12/28 08:18:48;;;;;;;17.57;10.87;;;;;;;-144.30;71.95;86334.88;5111353;28;20218;-56
2023/12/28 08:21:17;;;;;;;17.60;10.93;;;;;;;-144.30;72.27;86342.81;5111356;27;20194;-60
2023/12/28 08:23:44;;;;;;;22.37;11.23;;;;;;;-144.30;71.86;86330.88;5111518;28;20923;-55
2023/12/28 08:26:12;;;;;;;20.47;10.00;;;;;;;-144.30;71.11;86358.72;5111264;28;20205;-55
2023/12/28 08:28:40;;;;;;;12.47;10.00;;;;;;;-144.30;71.09;86370.66;5111022;28;20191;-54
2023/12/28 08:31:08;;;;;;;14.60;9.47;;;;;;;-144.30;71.43;86394.53;5110734;28;20225;-54
2023/12/28 08:33:39;;;;;;;13.07;9.87;;;;;;;-144.30;71.39;86356.75;5110835;28;20195;-56
2023/12/28 08:36:07;;;;;;;13.33;9.97;;;;;;;-144.30;70.74;86374.63;5108618;28;20203;-55
2023/12/28 08:38:34;;;;;;;18.97;10.60;;;;;;;-144.30;70.67;86259.31;5103837;28;20217;-61
2023/12/28 08:41:03;;;;;;;19.83;10.37;;;;;;;-144.30;69.90;86303.06;5110154;28;20237;-61
2023/12/28 08:43:31;;;;;;;23.43;10.77;;;;;;;-144.30;69.71;86334.88;5090351;28;20199;-61
2023/12/28 08:45:58;;;;;;;21.37;10.87;;;;;;;-144.30;70.08;86279.19;5089199;28;20294;-55
2023/12/28 08:48:25;;;;;;;22.20;10.77;;;;;;;-144.30;69.54;86291.13;5090478;28;20584;-54
2023/12/28 08:50:52;;;;;;;17.07;10.40;;;;;;;-144.30;69.69;86303.06;5090416;28;20194;-61
2023/12/28 08:53:19;;;;;;;14.03;10.13;;;;;;;-144.30;69.32;86330.88;5090841;28;20194;-61
2023/12/28 08:55:46;;;;;;;15.13;10.30;;;;;;;-144.30;69.08;86311.00;5090552;28;20667;-55
2023/12/28 08:58:13;;;;;;;17.63;9.43;;;;;;;-144.30;69.30;86311.00;5090533;28;20659;-55
2023/12/28 09:00:41;;;;;;;17.43;10.50;;;;;;;-144.30;69.17;86332.88;5089825;28;20222;-57
2023/12/28 09:03:08;;;;;;;15.40;10.07;;;;;;;-144.30;68.15;86320.94;5090069;28;20199;-54
2023/12/28 09:05:35;;;;;;;14.20;9.60;;;;;;;-144.30;68.16;86324.94;5090826;28;20286;-56
2023/12/28 09:08:02;;;;;;;16.90;10.17;;;;;;;-144.30;67.20;86263.28;5090430;28;20225;-63
2023/12/28 09:10:29;;;;;;;22.10;11.77;;;;;;;-144.30;67.12;86275.22;5091134;28;20633;-61
2023/12/28 09:12:56;;;;;;;19.07;11.07;;;;;;;-144.30;66.95;86263.28;5090521;28;20199;-62
2023/12/28 09:15:23;;;;;;;19.77;11.13;;;;;;;-144.30;66.58;86273.22;5090364;28;20677;-56
2023/12/28 09:17:52;;;;;;;20.20;10.57;;;;;;;-144.30;66.55;86259.31;5090051;28;20192;-56
2023/12/28 09:20:19;;;;;;;19.90;11.17;;;;;;;-144.30;66.61;86271.25;5089963;28;20227;-56
2023/12/28 09:22:47;;;;;;;15.97;10.23;;;;;;;-144.30;66.14;86251.34;5089930;28;20227;-57
2023/12/28 09:25:14;;;;;;;19.13;11.00;;;;;;;-144.30;65.13;86311.00;5090134;28;20210;-56
2023/12/28 09:27:41;;;;;;;21.17;10.63;;;;;;;-144.30;65.53;86251.34;5090001;28;20248;-55
2023/12/28 09:30:09;;;;;;;18.23;10.57;;;;;;;-144.30;64.87;86233.47;5089879;28;20191;-58
2023/12/28 09:32:37;;;;;;;15.53;10.33;;;;;;;-144.30;64.69;86257.31;5090157;28;20230;-56
2023/12/28 09:35:06;;;;;;;19.47;10.60;;;;;;;-144.30;64.14;86243.41;5089702;28;20290;-55
2023/12/28 09:37:33;;;;;;;22.53;11.17;;;;;;;-144.30;64.27;86213.56;5089973;28;20195;-57
2023/12/28 09:40:00;;;;;;;20.57;10.87;;;;;;;-144.30;63.80;86241.41;5089906;28;20253;-59
2023/12/28 09:42:33;;;;;;;19.07;11.53;;;;;;;-144.30;63.80;86223.50;5089950;28;20723;-61
2023/12/28 09:45:00;;;;;;;28.77;11.67;;;;;;;-144.30;63.42;86213.56;5089584;28;20199;-55
2023/12/28 09:47:28;;;;;;;16.47;11.30;;;;;;;-144.30;63.16;86181.75;5090175;28;20201;-61
2023/12/28 09:49:55;;;;;;;18.93;10.77;;;;;;;-144.30;63.02;86183.75;5089656;28;20192;-60
2023/12/28 09:52:23;;;;;;;25.73;10.70;;;;;;;-144.30;62.48;86199.66;5090158;28;20215;-61
2023/12/28 09:54:50;;;;;;;13.87;9.87;;;;;;;-144.30;62.85;86181.75;5097181;28;20229;-61
2023/12/28 09:57:18;;;;;;;20.97;11.40;;;;;;;-144.30;62.55;86197.66;5109698;28;20203;-61
2023/12/28 09:59:46;;;;;;;22.50;11.73;;;;;;;-144.30;62.17;86179.78;5109359;28;20305;-55
2023/12/28 10:02:13;;;;;;;17.87;10.07;;;;;;;-144.30;61.98;86169.81;5110233;28;20230;-59
2023/12/28 10:04:40;;;;;;;15.73;9.90;;;;;;;-144.30;62.19;86159.88;5109517;28;20208;-55
2023/12/28 10:07:07;;;;;;;12.80;10.13;;;;;;;-144.30;61.47;86195.69;5110120;28;20674;-60
2023/12/28 10:09:35;;;;;;;23.23;11.03;;;;;;;-144.30;61.40;86140.00;5110021;28;20195;-60
2023/12/28 10:12:03;;;;;;;14.07;9.40;;;;;;;-144.30;60.65;86171.81;5110869;28;20213;-60
2023/12/28 10:14:30;;;;;;;20.10;11.20;;;;;;;-144.30;61.04;86136.03;5116922;27;20666;-61
2023/12/28 10:16:57;;;;;;;13.03;9.87;;;;;;;-144.30;60.49;86138.00;5116557;28;20583;-55
2023/12/28 10:19:24;;;;;;;22.80;10.50;;;;;;;-144.30;60.60;86118.13;5116243;28;20309;-53
2023/12/28 10:21:51;;;;;;;14.80;9.53;;;;;;;-144.30;60.47;86140.00;5116287;28;20577;-55
2023/12/28 10:24:18;;;;;;;17.20;9.80;;;;;;;-144.30;60.69;86140.00;5116098;28;20631;-60
2023/12/28 10:26:46;;;;;;;28.10;11.77;;;;;;;-144.30;59.67;86140.00;5116529;28;20706;-60
2023/12/28 10:29:13;;;;;;;21.57;11.07;;;;;;;-144.30;60.00;86157.91;5116468;28;20212;-60
2023/12/28 10:31:43;;;;;;;22.97;10.07;;;;;;;-144.30;59.81;86122.09;5116383;28;20212;-53
2023/12/28 10:34:10;;;;;;;15.57;10.47;;;;;;;-144.30;59.23;86112.16;5116260;28;20212;-55
2023/12/28 10:36:39;;;;;;;16.33;9.60;;;;;;;-144.30;58.77;86060.47;5111858;28;20214;-55
2023/12/28 10:39:09;;;;;;;16.80;9.23;;;;;;;-144.30;58.85;86118.13;5115944;27;20661;-55
2023/12/28 10:41:37;;;;;;;22.53;10.83;;;;;;;-144.30;58.75;86130.06;5115973;28;20596;-55
2023/12/28 10:44:06;;;;;;;18.00;10.43;;;;;;;-144.30;58.49;86110.19;5115677;27;20274;-55
2023/12/28 10:46:34;;;;;;;16.90;10.00;;;;;;;-144.30;57.78;86090.28;5116476;27;20194;-60
2023/12/28 10:49:10;;;;;;;15.60;10.57;;;;;;;-144.30;57.64;86044.56;5116017;27;20190;-61
2023/12/28 10:51:41;;;;;;;17.13;10.97;;;;;;;-144.30;57.39;86064.44;5115923;27;20194;-60
2023/12/28 10:54:20;;;;;;;13.80;10.00;;;;;;;-144.30;56.99;86080.34;5115793;27;20251;-60
2023/12/28 10:56:50;;;;;;;16.83;9.93;;;;;;;-144.30;57.11;86092.28;5112571;28;20201;-61
2023/12/28 10:59:29;;;;;;;16.90;10.80;;;;;;;-144.30;56.70;86052.50;5115965;28;20195;-61
2023/12/28 11:02:00;;;;;;;23.27;11.57;;;;;;;-144.30;56.73;86076.38;5115442;28;20665;-60
2023/12/28 11:04:32;;;;;;;17.47;10.70;;;;;;;-144.30;56.70;86048.53;5113702;28;20670;-60
2023/12/28 11:07:00;;;;;;;22.50;10.50;;;;;;;-144.30;56.49;86058.47;5115770;28;20191;-61
2023/12/28 11:09:31;;;;;;;15.73;10.73;;;;;;;-144.30;56.61;86074.38;5116142;27;20190;-59